sensor_id;sensor_type;location;lat;lon;timestamp;temperature;humidity
15543;DHT22;7873;52.230;12.856;2023-04-24T00:00:50;22.50;45.40
15543;DHT22;7873;52.230;12.856;2023-04-24T00:03:19;22.40;45.40
15543;DHT22;7873;52.230;12.856;2023-04-24T00:05:46;22.40;45.50
15543;DHT22;7873;52.230;12.856;2023-04-24T00:08:12;22.40;45.50
15543;DHT22;7873;52.230;12.856;2023-04-24T00:10:39;22.40;45.50
15543;DHT22;7873;52.230;12.856;2023-04-24T00:13:07;22.40;45.50
15543;DHT22;7873;52.230;12.856;2023-04-24T00:15:34;22.40;45.60
15543;DHT22;7873;52.230;12.856;2023-04-24T00:18:00;22.30;45.60
15543;DHT22;7873;52.230;12.856;2023-04-24T00:20:29;22.30;45.60
15543;DHT22;7873;52.230;12.856;2023-04-24T00:22:57;22.30;45.60
15543;DHT22;7873;52.230;12.856;2023-04-24T00:25:24;22.30;45.70
15543;DHT22;7873;52.230;12.856;2023-04-24T00:27:51;22.30;45.60
15543;DHT22;7873;52.230;12.856;2023-04-24T00:30:17;22.30;45.70
15543;DHT22;7873;52.230;12.856;2023-04-24T00:32:44;22.30;45.70
15543;DHT22;7873;52.230;12.856;2023-04-24T00:35:11;22.30;45.70
15543;DHT22;7873;52.230;12.856;2023-04-24T00:37:39;22.30;45.70
15543;DHT22;7873;52.230;12.856;2023-04-24T00:40:06;22.30;45.80
15543;DHT22;7873;52.230;12.856;2023-04-24T00:42:33;22.30;45.70
15543;DHT22;7873;52.230;12.856;2023-04-24T00:45:00;22.30;45.70
15543;DHT22;7873;52.230;12.856;2023-04-24T00:47:28;22.30;45.70
15543;DHT22;7873;52.230;12.856;2023-04-24T00:49:55;22.30;45.60
15543;DHT22;7873;52.230;12.856;2023-04-24T00:52:22;22.30;45.70
15543;DHT22;7873;52.230;12.856;2023-04-24T00:54:50;22.30;45.60
15543;DHT22;7873;52.230;12.856;2023-04-24T00:57:17;22.30;45.60
15543;DHT22;7873;52.230;12.856;2023-04-24T00:59:44;22.30;45.60
15543;DHT22;7873;52.230;12.856;2023-04-24T01:02:11;22.30;45.60
15543;DHT22;7873;52.230;12.856;2023-04-24T01:04:39;22.30;45.70
15543;DHT22;7873;52.230;12.856;2023-04-24T01:07:05;22.20;45.70
15543;DHT22;7873;52.230;12.856;2023-04-24T01:09:35;22.20;45.70
15543;DHT22;7873;52.230;12.856;2023-04-24T01:12:04;22.20;45.60
15543;DHT22;7873;52.230;12.856;2023-04-24T01:14:31;22.20;45.60
15543;DHT22;7873;52.230;12.856;2023-04-24T01:16:58;22.20;45.70
15543;DHT22;7873;52.230;12.856;2023-04-24T01:19:25;22.20;45.70
15543;DHT22;7873;52.230;12.856;2023-04-24T01:21:53;22.20;45.70
15543;DHT22;7873;52.230;12.856;2023-04-24T01:24:24;22.20;45.70
15543;DHT22;7873;52.230;12.856;2023-04-24T01:26:51;22.20;45.70
15543;DHT22;7873;52.230;12.856;2023-04-24T01:29:18;22.20;45.70
15543;DHT22;7873;52.230;12.856;2023-04-24T01:31:44;22.20;45.60
15543;DHT22;7873;52.230;12.856;2023-04-24T01:34:11;22.20;45.70
15543;DHT22;7873;52.230;12.856;2023-04-24T01:36:38;22.20;45.70
15543;DHT22;7873;52.230;12.856;2023-04-24T01:39:07;22.20;45.70
15543;DHT22;7873;52.230;12.856;2023-04-24T01:41:35;22.20;45.70
15543;DHT22;7873;52.230;12.856;2023-04-24T01:44:02;22.20;45.70
15543;DHT22;7873;52.230;12.856;2023-04-24T01:46:29;22.10;45.80
15543;DHT22;7873;52.230;12.856;2023-04-24T01:48:56;22.10;45.80
15543;DHT22;7873;52.230;12.856;2023-04-24T01:51:25;22.10;45.80
15543;DHT22;7873;52.230;12.856;2023-04-24T01:53:52;22.10;45.80
15543;DHT22;7873;52.230;12.856;2023-04-24T01:56:19;22.10;45.80
15543;DHT22;7873;52.230;12.856;2023-04-24T01:58:47;22.10;45.80
15543;DHT22;7873;52.230;12.856;2023-04-24T02:01:17;22.10;45.80
15543;DHT22;7873;52.230;12.856;2023-04-24T02:03:44;22.10;45.80
15543;DHT22;7873;52.230;12.856;2023-04-24T02:06:10;22.10;45.90
15543;DHT22;7873;52.230;12.856;2023-04-24T02:08:37;22.10;45.90
15543;DHT22;7873;52.230;12.856;2023-04-24T02:11:04;22.10;45.80
15543;DHT22;7873;52.230;12.856;2023-04-24T02:13:31;22.10;45.80
15543;DHT22;7873;52.230;12.856;2023-04-24T02:15:59;22.10;45.80
15543;DHT22;7873;52.230;12.856;2023-04-24T02:18:26;22.10;45.90
15543;DHT22;7873;52.230;12.856;2023-04-24T02:20:52;22.00;45.90
15543;DHT22;7873;52.230;12.856;2023-04-24T02:23:19;22.00;46.00
15543;DHT22;7873;52.230;12.856;2023-04-24T02:25:46;22.00;45.90
15543;DHT22;7873;52.230;12.856;2023-04-24T02:28:13;22.00;46.00
15543;DHT22;7873;52.230;12.856;2023-04-24T02:30:39;22.00;46.00
15543;DHT22;7873;52.230;12.856;2023-04-24T02:33:08;22.00;45.90
15543;DHT22;7873;52.230;12.856;2023-04-24T02:35:35;22.00;45.90
15543;DHT22;7873;52.230;12.856;2023-04-24T02:38:02;22.00;46.10
15543;DHT22;7873;52.230;12.856;2023-04-24T02:40:30;22.00;46.80
15543;DHT22;7873;52.230;12.856;2023-04-24T02:42:58;22.00;46.10
15543;DHT22;7873;52.230;12.856;2023-04-24T02:45:26;22.00;46.10
15543;DHT22;7873;52.230;12.856;2023-04-24T02:47:53;22.00;46.10
15543;DHT22;7873;52.230;12.856;2023-04-24T02:50:22;22.00;46.00
15543;DHT22;7873;52.230;12.856;2023-04-24T02:52:49;22.00;46.10
15543;DHT22;7873;52.230;12.856;2023-04-24T02:55:16;22.00;46.00
15543;DHT22;7873;52.230;12.856;2023-04-24T02:57:43;22.00;46.00
15543;DHT22;7873;52.230;12.856;2023-04-24T03:00:10;22.00;46.10
15543;DHT22;7873;52.230;12.856;2023-04-24T03:02:38;22.00;46.00
15543;DHT22;7873;52.230;12.856;2023-04-24T03:05:05;22.00;46.00
15543;DHT22;7873;52.230;12.856;2023-04-24T03:07:34;22.00;45.90
15543;DHT22;7873;52.230;12.856;2023-04-24T03:10:00;22.10;45.70
15543;DHT22;7873;52.230;12.856;2023-04-24T03:12:27;22.10;45.70
15543;DHT22;7873;52.230;12.856;2023-04-24T03:14:54;22.30;45.40
15543;DHT22;7873;52.230;12.856;2023-04-24T03:17:20;22.40;45.00
15543;DHT22;7873;52.230;12.856;2023-04-24T03:19:47;22.60;44.70
15543;DHT22;7873;52.230;12.856;2023-04-24T03:22:14;22.70;44.40
15543;DHT22;7873;52.230;12.856;2023-04-24T03:24:42;22.70;44.20
15543;DHT22;7873;52.230;12.856;2023-04-24T03:27:08;22.70;44.40
15543;DHT22;7873;52.230;12.856;2023-04-24T03:29:35;22.70;44.20
15543;DHT22;7873;52.230;12.856;2023-04-24T03:32:02;22.70;44.30
15543;DHT22;7873;52.230;12.856;2023-04-24T03:34:29;22.70;44.50
15543;DHT22;7873;52.230;12.856;2023-04-24T03:36:55;22.70;44.50
15543;DHT22;7873;52.230;12.856;2023-04-24T03:39:22;22.60;44.70
15543;DHT22;7873;52.230;12.856;2023-04-24T03:41:51;22.60;44.70
15543;DHT22;7873;52.230;12.856;2023-04-24T03:44:18;22.70;44.60
15543;DHT22;7873;52.230;12.856;2023-04-24T03:46:45;22.70;44.40
15543;DHT22;7873;52.230;12.856;2023-04-24T03:49:11;22.70;44.50
15543;DHT22;7873;52.230;12.856;2023-04-24T03:51:38;22.70;44.40
15543;DHT22;7873;52.230;12.856;2023-04-24T03:54:05;22.70;44.50
15543;DHT22;7873;52.230;12.856;2023-04-24T03:56:31;22.50;45.60
15543;DHT22;7873;52.230;12.856;2023-04-24T03:58:59;22.50;45.20
15543;DHT22;7873;52.230;12.856;2023-04-24T04:01:26;22.60;45.20
15543;DHT22;7873;52.230;12.856;2023-04-24T04:03:53;22.60;44.90
15543;DHT22;7873;52.230;12.856;2023-04-24T04:06:20;22.60;45.10
15543;DHT22;7873;52.230;12.856;2023-04-24T04:08:47;22.70;45.10
15543;DHT22;7873;52.230;12.856;2023-04-24T04:11:14;22.70;44.90
15543;DHT22;7873;52.230;12.856;2023-04-24T04:13:40;22.80;44.90
15543;DHT22;7873;52.230;12.856;2023-04-24T04:16:09;22.70;44.90
15543;DHT22;7873;52.230;12.856;2023-04-24T04:18:36;22.80;44.60
15543;DHT22;7873;52.230;12.856;2023-04-24T04:21:03;22.80;44.90
15543;DHT22;7873;52.230;12.856;2023-04-24T04:23:29;22.80;45.20
15543;DHT22;7873;52.230;12.856;2023-04-24T04:25:57;22.70;45.20
15543;DHT22;7873;52.230;12.856;2023-04-24T04:28:24;22.80;44.80
15543;DHT22;7873;52.230;12.856;2023-04-24T04:30:51;22.80;44.60
15543;DHT22;7873;52.230;12.856;2023-04-24T04:33:20;22.90;44.70
15543;DHT22;7873;52.230;12.856;2023-04-24T04:35:47;22.70;44.90
15543;DHT22;7873;52.230;12.856;2023-04-24T04:38:14;22.60;45.50
15543;DHT22;7873;52.230;12.856;2023-04-24T04:40:42;22.60;45.00
15543;DHT22;7873;52.230;12.856;2023-04-24T04:43:09;22.60;45.20
15543;DHT22;7873;52.230;12.856;2023-04-24T04:45:36;22.50;45.50
15543;DHT22;7873;52.230;12.856;2023-04-24T04:48:04;22.50;45.40
15543;DHT22;7873;52.230;12.856;2023-04-24T04:50:34;22.70;44.80
15543;DHT22;7873;52.230;12.856;2023-04-24T04:53:00;22.70;44.60
15543;DHT22;7873;52.230;12.856;2023-04-24T04:55:27;22.80;44.40
15543;DHT22;7873;52.230;12.856;2023-04-24T04:57:54;22.80;44.00
15543;DHT22;7873;52.230;12.856;2023-04-24T05:00:22;22.80;44.00
15543;DHT22;7873;52.230;12.856;2023-04-24T05:02:50;22.80;44.60
15543;DHT22;7873;52.230;12.856;2023-04-24T05:05:17;22.60;44.80
15543;DHT22;7873;52.230;12.856;2023-04-24T05:07:45;22.60;44.80
15543;DHT22;7873;52.230;12.856;2023-04-24T05:10:12;22.60;45.00
15543;DHT22;7873;52.230;12.856;2023-04-24T05:12:39;22.70;44.50
15543;DHT22;7873;52.230;12.856;2023-04-24T05:15:06;22.80;44.30
15543;DHT22;7873;52.230;12.856;2023-04-24T05:17:33;22.80;44.20
15543;DHT22;7873;52.230;12.856;2023-04-24T05:20:00;22.80;44.10
15543;DHT22;7873;52.230;12.856;2023-04-24T05:22:28;22.90;44.20
15543;DHT22;7873;52.230;12.856;2023-04-24T05:24:56;22.80;44.20
15543;DHT22;7873;52.230;12.856;2023-04-24T05:27:23;22.80;44.40
15543;DHT22;7873;52.230;12.856;2023-04-24T05:29:50;22.70;44.50
15543;DHT22;7873;52.230;12.856;2023-04-24T05:32:17;22.70;44.50
15543;DHT22;7873;52.230;12.856;2023-04-24T05:34:44;22.60;44.60
15543;DHT22;7873;52.230;12.856;2023-04-24T05:37:10;22.60;44.80
15543;DHT22;7873;52.230;12.856;2023-04-24T05:39:37;22.50;44.80
15543;DHT22;7873;52.230;12.856;2023-04-24T05:42:07;22.50;44.80
15543;DHT22;7873;52.230;12.856;2023-04-24T05:44:34;22.50;45.00
15543;DHT22;7873;52.230;12.856;2023-04-24T05:47:00;22.40;45.00
15543;DHT22;7873;52.230;12.856;2023-04-24T05:49:27;22.40;45.10
15543;DHT22;7873;52.230;12.856;2023-04-24T05:51:54;22.30;45.20
15543;DHT22;7873;52.230;12.856;2023-04-24T05:54:20;22.30;45.30
15543;DHT22;7873;52.230;12.856;2023-04-24T05:56:48;22.40;45.20
15543;DHT22;7873;52.230;12.856;2023-04-24T05:59:16;22.30;45.20
15543;DHT22;7873;52.230;12.856;2023-04-24T06:01:44;22.30;45.20
15543;DHT22;7873;52.230;12.856;2023-04-24T06:04:11;22.40;45.10
15543;DHT22;7873;52.230;12.856;2023-04-24T06:06:39;22.30;45.20
15543;DHT22;7873;52.230;12.856;2023-04-24T06:09:05;22.30;45.20
15543;DHT22;7873;52.230;12.856;2023-04-24T06:11:32;22.30;45.20
15543;DHT22;7873;52.230;12.856;2023-04-24T06:13:59;22.30;45.20
15543;DHT22;7873;52.230;12.856;2023-04-24T06:16:27;22.30;45.10
15543;DHT22;7873;52.230;12.856;2023-04-24T06:18:53;22.30;45.00
15543;DHT22;7873;52.230;12.856;2023-04-24T06:21:20;22.40;45.00
15543;DHT22;7873;52.230;12.856;2023-04-24T06:23:47;22.40;44.90
15543;DHT22;7873;52.230;12.856;2023-04-24T06:26:15;22.40;44.90
15543;DHT22;7873;52.230;12.856;2023-04-24T06:28:41;22.40;45.00
15543;DHT22;7873;52.230;12.856;2023-04-24T06:31:08;22.40;45.00
15543;DHT22;7873;52.230;12.856;2023-04-24T06:33:36;22.40;44.80
15543;DHT22;7873;52.230;12.856;2023-04-24T06:36:03;22.40;44.80
15543;DHT22;7873;52.230;12.856;2023-04-24T06:38:30;22.40;44.80
15543;DHT22;7873;52.230;12.856;2023-04-24T06:40:57;22.40;44.80
15543;DHT22;7873;52.230;12.856;2023-04-24T06:43:24;22.40;44.80
15543;DHT22;7873;52.230;12.856;2023-04-24T06:45:50;22.40;44.70
15543;DHT22;7873;52.230;12.856;2023-04-24T06:48:17;22.40;44.70
15543;DHT22;7873;52.230;12.856;2023-04-24T06:50:45;22.40;44.80
15543;DHT22;7873;52.230;12.856;2023-04-24T06:53:12;22.40;44.70
15543;DHT22;7873;52.230;12.856;2023-04-24T06:55:39;22.40;44.70
15543;DHT22;7873;52.230;12.856;2023-04-24T06:58:07;22.40;44.60
15543;DHT22;7873;52.230;12.856;2023-04-24T07:00:33;22.50;44.70
15543;DHT22;7873;52.230;12.856;2023-04-24T07:03:00;22.40;44.70
15543;DHT22;7873;52.230;12.856;2023-04-24T07:05:27;22.40;44.70
15543;DHT22;7873;52.230;12.856;2023-04-24T07:07:56;22.40;44.80
15543;DHT22;7873;52.230;12.856;2023-04-24T07:10:23;22.30;45.00
15543;DHT22;7873;52.230;12.856;2023-04-24T07:12:52;22.30;45.10
15543;DHT22;7873;52.230;12.856;2023-04-24T07:15:19;22.20;45.20
15543;DHT22;7873;52.230;12.856;2023-04-24T07:17:46;22.20;45.20
15543;DHT22;7873;52.230;12.856;2023-04-24T07:20:12;22.20;45.30
15543;DHT22;7873;52.230;12.856;2023-04-24T07:22:40;22.20;45.40
15543;DHT22;7873;52.230;12.856;2023-04-24T07:25:08;22.10;45.40
15543;DHT22;7873;52.230;12.856;2023-04-24T07:27:35;22.10;45.40
15543;DHT22;7873;52.230;12.856;2023-04-24T07:30:02;22.10;45.50
15543;DHT22;7873;52.230;12.856;2023-04-24T07:32:29;22.10;45.50
15543;DHT22;7873;52.230;12.856;2023-04-24T07:34:56;22.10;45.50
15543;DHT22;7873;52.230;12.856;2023-04-24T07:37:23;22.10;45.50
15543;DHT22;7873;52.230;12.856;2023-04-24T07:39:50;22.10;45.50
15543;DHT22;7873;52.230;12.856;2023-04-24T07:42:18;22.10;45.40
15543;DHT22;7873;52.230;12.856;2023-04-24T07:44:44;22.10;45.40
15543;DHT22;7873;52.230;12.856;2023-04-24T07:47:12;22.10;45.40
15543;DHT22;7873;52.230;12.856;2023-04-24T07:49:40;22.10;45.40
15543;DHT22;7873;52.230;12.856;2023-04-24T07:52:07;22.10;45.50
15543;DHT22;7873;52.230;12.856;2023-04-24T07:54:34;22.10;45.40
15543;DHT22;7873;52.230;12.856;2023-04-24T07:57:02;22.10;45.40
15543;DHT22;7873;52.230;12.856;2023-04-24T07:59:30;22.10;45.40
15543;DHT22;7873;52.230;12.856;2023-04-24T08:01:57;22.10;45.40
15543;DHT22;7873;52.230;12.856;2023-04-24T08:04:24;22.10;45.40
15543;DHT22;7873;52.230;12.856;2023-04-24T08:06:51;22.10;45.40
15543;DHT22;7873;52.230;12.856;2023-04-24T08:09:17;22.10;45.40
15543;DHT22;7873;52.230;12.856;2023-04-24T08:11:44;22.10;45.40
15543;DHT22;7873;52.230;12.856;2023-04-24T08:14:11;22.10;45.20
15543;DHT22;7873;52.230;12.856;2023-04-24T08:16:39;22.10;45.30
15543;DHT22;7873;52.230;12.856;2023-04-24T08:19:06;22.10;45.30
15543;DHT22;7873;52.230;12.856;2023-04-24T08:21:33;22.10;45.20
15543;DHT22;7873;52.230;12.856;2023-04-24T08:24:00;22.10;45.20
15543;DHT22;7873;52.230;12.856;2023-04-24T08:26:30;22.10;45.20
15543;DHT22;7873;52.230;12.856;2023-04-24T08:28:57;22.10;45.20
15543;DHT22;7873;52.230;12.856;2023-04-24T08:31:23;22.10;45.20
15543;DHT22;7873;52.230;12.856;2023-04-24T08:33:52;22.10;45.30
15543;DHT22;7873;52.230;12.856;2023-04-24T08:36:19;22.10;45.30
15543;DHT22;7873;52.230;12.856;2023-04-24T08:38:46;22.10;45.30
15543;DHT22;7873;52.230;12.856;2023-04-24T08:41:13;22.10;45.20
15543;DHT22;7873;52.230;12.856;2023-04-24T08:43:40;22.10;45.30
15543;DHT22;7873;52.230;12.856;2023-04-24T08:46:08;22.10;45.20
15543;DHT22;7873;52.230;12.856;2023-04-24T08:48:35;22.10;45.20
15543;DHT22;7873;52.230;12.856;2023-04-24T08:51:04;22.10;45.10
15543;DHT22;7873;52.230;12.856;2023-04-24T08:53:33;22.20;45.10
15543;DHT22;7873;52.230;12.856;2023-04-24T08:56:00;22.20;45.10
15543;DHT22;7873;52.230;12.856;2023-04-24T08:58:28;22.20;45.00
15543;DHT22;7873;52.230;12.856;2023-04-24T09:00:55;22.20;45.00
15543;DHT22;7873;52.230;12.856;2023-04-24T09:03:23;22.20;45.00
15543;DHT22;7873;52.230;12.856;2023-04-24T09:05:50;22.20;44.90
15543;DHT22;7873;52.230;12.856;2023-04-24T09:08:20;22.20;44.90
15543;DHT22;7873;52.230;12.856;2023-04-24T09:10:50;22.20;44.80
15543;DHT22;7873;52.230;12.856;2023-04-24T09:13:17;22.20;44.80
15543;DHT22;7873;52.230;12.856;2023-04-24T09:15:45;22.20;44.80
15543;DHT22;7873;52.230;12.856;2023-04-24T09:18:12;22.20;44.70
15543;DHT22;7873;52.230;12.856;2023-04-24T09:23:26;22.20;44.70
15543;DHT22;7873;52.230;12.856;2023-04-24T09:25:54;22.20;44.70
15543;DHT22;7873;52.230;12.856;2023-04-24T09:28:24;22.30;44.60
15543;DHT22;7873;52.230;12.856;2023-04-24T09:31:01;22.30;44.60
15543;DHT22;7873;52.230;12.856;2023-04-24T09:33:29;22.30;44.70
15543;DHT22;7873;52.230;12.856;2023-04-24T09:35:55;22.30;44.70
15543;DHT22;7873;52.230;12.856;2023-04-24T09:38:35;22.30;44.60
15543;DHT22;7873;52.230;12.856;2023-04-24T09:41:04;22.30;45.30
15543;DHT22;7873;52.230;12.856;2023-04-24T09:43:32;22.30;44.60
15543;DHT22;7873;52.230;12.856;2023-04-24T09:46:04;22.30;44.50
15543;DHT22;7873;52.230;12.856;2023-04-24T09:48:32;22.30;44.50
15543;DHT22;7873;52.230;12.856;2023-04-24T09:51:00;22.30;44.50
15543;DHT22;7873;52.230;12.856;2023-04-24T09:53:28;22.30;44.40
15543;DHT22;7873;52.230;12.856;2023-04-24T09:55:58;22.30;44.30
15543;DHT22;7873;52.230;12.856;2023-04-24T09:58:29;22.40;44.40
15543;DHT22;7873;52.230;12.856;2023-04-24T10:00:56;22.30;44.30
15543;DHT22;7873;52.230;12.856;2023-04-24T10:03:23;22.40;44.30
15543;DHT22;7873;52.230;12.856;2023-04-24T10:05:52;22.30;44.30
15543;DHT22;7873;52.230;12.856;2023-04-24T10:08:19;22.30;44.40
15543;DHT22;7873;52.230;12.856;2023-04-24T10:10:46;22.30;44.50
15543;DHT22;7873;52.230;12.856;2023-04-24T10:13:15;22.30;44.60
15543;DHT22;7873;52.230;12.856;2023-04-24T10:15:41;22.20;44.60
15543;DHT22;7873;52.230;12.856;2023-04-24T10:18:09;22.20;44.70
15543;DHT22;7873;52.230;12.856;2023-04-24T10:20:37;22.20;44.70
15543;DHT22;7873;52.230;12.856;2023-04-24T10:23:07;22.20;44.70
15543;DHT22;7873;52.230;12.856;2023-04-24T10:25:34;22.20;44.60
15543;DHT22;7873;52.230;12.856;2023-04-24T10:28:02;22.20;44.60
15543;DHT22;7873;52.230;12.856;2023-04-24T10:30:31;22.30;44.50
15543;DHT22;7873;52.230;12.856;2023-04-24T10:33:01;22.40;44.40
15543;DHT22;7873;52.230;12.856;2023-04-24T10:35:30;22.30;44.30
15543;DHT22;7873;52.230;12.856;2023-04-24T10:37:59;22.40;44.20
15543;DHT22;7873;52.230;12.856;2023-04-24T10:40:30;22.40;44.20
15543;DHT22;7873;52.230;12.856;2023-04-24T10:42:58;22.40;44.10
15543;DHT22;7873;52.230;12.856;2023-04-24T10:45:25;22.40;44.10
15543;DHT22;7873;52.230;12.856;2023-04-24T10:47:54;22.40;44.20
15543;DHT22;7873;52.230;12.856;2023-04-24T10:50:25;22.40;44.20
15543;DHT22;7873;52.230;12.856;2023-04-24T10:52:52;22.30;44.20
15543;DHT22;7873;52.230;12.856;2023-04-24T10:55:40;22.30;44.30
15543;DHT22;7873;52.230;12.856;2023-04-24T10:58:08;22.30;44.30
15543;DHT22;7873;52.230;12.856;2023-04-24T11:00:36;22.30;44.30
15543;DHT22;7873;52.230;12.856;2023-04-24T11:03:06;22.40;44.20
15543;DHT22;7873;52.230;12.856;2023-04-24T11:05:48;22.40;44.20
15543;DHT22;7873;52.230;12.856;2023-04-24T11:08:21;22.40;44.10
15543;DHT22;7873;52.230;12.856;2023-04-24T11:10:54;22.40;44.20
15543;DHT22;7873;52.230;12.856;2023-04-24T11:13:22;22.40;44.20
15543;DHT22;7873;52.230;12.856;2023-04-24T11:18:43;22.40;44.10
15543;DHT22;7873;52.230;12.856;2023-04-24T11:21:16;22.40;44.10
15543;DHT22;7873;52.230;12.856;2023-04-24T11:23:44;22.40;44.00
15543;DHT22;7873;52.230;12.856;2023-04-24T11:26:11;22.40;43.90
15543;DHT22;7873;52.230;12.856;2023-04-24T11:28:46;22.40;43.80
15543;DHT22;7873;52.230;12.856;2023-04-24T11:34:09;22.50;44.00
15543;DHT22;7873;52.230;12.856;2023-04-24T11:36:37;22.50;43.90
15543;DHT22;7873;52.230;12.856;2023-04-24T11:39:04;22.50;43.80
15543;DHT22;7873;52.230;12.856;2023-04-24T11:41:31;22.50;43.90
15543;DHT22;7873;52.230;12.856;2023-04-24T11:43:59;22.50;43.90
15543;DHT22;7873;52.230;12.856;2023-04-24T11:46:27;22.40;44.00
15543;DHT22;7873;52.230;12.856;2023-04-24T11:48:55;22.40;44.00
15543;DHT22;7873;52.230;12.856;2023-04-24T11:51:24;22.40;44.00
15543;DHT22;7873;52.230;12.856;2023-04-24T11:53:51;22.40;44.00
15543;DHT22;7873;52.230;12.856;2023-04-24T11:56:19;22.40;43.80
15543;DHT22;7873;52.230;12.856;2023-04-24T11:58:47;22.50;43.70
15543;DHT22;7873;52.230;12.856;2023-04-24T12:01:14;22.60;43.50
15543;DHT22;7873;52.230;12.856;2023-04-24T12:03:41;22.60;43.50
15543;DHT22;7873;52.230;12.856;2023-04-24T12:06:10;22.60;43.30
15543;DHT22;7873;52.230;12.856;2023-04-24T12:08:39;22.60;43.30
15543;DHT22;7873;52.230;12.856;2023-04-24T12:11:06;22.70;43.20
15543;DHT22;7873;52.230;12.856;2023-04-24T12:13:33;22.70;43.20
15543;DHT22;7873;52.230;12.856;2023-04-24T12:16:01;22.60;43.30
15543;DHT22;7873;52.230;12.856;2023-04-24T12:18:29;22.60;43.50
15543;DHT22;7873;52.230;12.856;2023-04-24T12:23:43;22.60;43.40
15543;DHT22;7873;52.230;12.856;2023-04-24T12:26:11;22.60;43.30
15543;DHT22;7873;52.230;12.856;2023-04-24T12:28:38;22.70;43.20
15543;DHT22;7873;52.230;12.856;2023-04-24T12:31:06;22.70;43.20
15543;DHT22;7873;52.230;12.856;2023-04-24T12:33:33;22.70;43.20
15543;DHT22;7873;52.230;12.856;2023-04-24T12:36:01;22.70;43.10
15543;DHT22;7873;52.230;12.856;2023-04-24T12:38:28;22.70;43.80
15543;DHT22;7873;52.230;12.856;2023-04-24T12:41:03;22.70;43.00
15543;DHT22;7873;52.230;12.856;2023-04-24T12:43:31;22.70;43.00
15543;DHT22;7873;52.230;12.856;2023-04-24T12:45:58;22.70;43.10
15543;DHT22;7873;52.230;12.856;2023-04-24T12:48:25;22.60;43.10
15543;DHT22;7873;52.230;12.856;2023-04-24T12:50:52;22.60;43.20
15543;DHT22;7873;52.230;12.856;2023-04-24T12:53:19;22.60;43.30
15543;DHT22;7873;52.230;12.856;2023-04-24T12:55:45;22.60;43.30
15543;DHT22;7873;52.230;12.856;2023-04-24T12:58:19;22.60;43.10
15543;DHT22;7873;52.230;12.856;2023-04-24T13:00:46;22.70;43.20
15543;DHT22;7873;52.230;12.856;2023-04-24T13:03:14;22.60;43.20
15543;DHT22;7873;52.230;12.856;2023-04-24T13:05:41;22.60;43.20
15543;DHT22;7873;52.230;12.856;2023-04-24T13:08:08;22.60;43.30
15543;DHT22;7873;52.230;12.856;2023-04-24T13:10:35;22.60;43.20
15543;DHT22;7873;52.230;12.856;2023-04-24T13:13:02;22.70;43.20
15543;DHT22;7873;52.230;12.856;2023-04-24T13:15:30;22.70;43.20
15543;DHT22;7873;52.230;12.856;2023-04-24T13:17:57;22.70;43.20
15543;DHT22;7873;52.230;12.856;2023-04-24T13:20:23;22.60;43.10
15543;DHT22;7873;52.230;12.856;2023-04-24T13:22:51;22.60;43.30
15543;DHT22;7873;52.230;12.856;2023-04-24T13:25:18;22.60;43.30
15543;DHT22;7873;52.230;12.856;2023-04-24T13:27:45;22.60;43.30
15543;DHT22;7873;52.230;12.856;2023-04-24T13:30:12;22.60;43.40
15543;DHT22;7873;52.230;12.856;2023-04-24T13:32:40;22.50;43.50
15543;DHT22;7873;52.230;12.856;2023-04-24T13:35:07;22.60;43.40
15543;DHT22;7873;52.230;12.856;2023-04-24T13:37:35;22.60;43.10
15543;DHT22;7873;52.230;12.856;2023-04-24T13:40:01;22.70;43.00
15543;DHT22;7873;52.230;12.856;2023-04-24T13:42:31;22.70;43.00
15543;DHT22;7873;52.230;12.856;2023-04-24T13:44:58;22.80;43.00
15543;DHT22;7873;52.230;12.856;2023-04-24T13:47:25;22.70;43.30
15543;DHT22;7873;52.230;12.856;2023-04-24T13:49:53;22.70;43.60
15543;DHT22;7873;52.230;12.856;2023-04-24T13:52:20;22.60;43.50
15543;DHT22;7873;52.230;12.856;2023-04-24T13:54:46;22.70;43.30
15543;DHT22;7873;52.230;12.856;2023-04-24T13:57:13;22.80;43.30
15543;DHT22;7873;52.230;12.856;2023-04-24T13:59:40;22.90;43.30
15543;DHT22;7873;52.230;12.856;2023-04-24T14:02:07;22.90;43.20
15543;DHT22;7873;52.230;12.856;2023-04-24T14:04:33;23.00;43.20
15543;DHT22;7873;52.230;12.856;2023-04-24T14:07:02;22.80;43.50
15543;DHT22;7873;52.230;12.856;2023-04-24T14:09:28;22.80;43.70
15543;DHT22;7873;52.230;12.856;2023-04-24T14:11:55;22.60;43.50
15543;DHT22;7873;52.230;12.856;2023-04-24T14:14:23;21.60;39.80
15543;DHT22;7873;52.230;12.856;2023-04-24T14:16:49;21.10;39.50
15543;DHT22;7873;52.230;12.856;2023-04-24T14:19:17;20.70;39.30
15543;DHT22;7873;52.230;12.856;2023-04-24T14:21:43;20.40;39.30
15543;DHT22;7873;52.230;12.856;2023-04-24T14:24:11;20.40;39.40
15543;DHT22;7873;52.230;12.856;2023-04-24T14:26:38;20.40;38.80
15543;DHT22;7873;52.230;12.856;2023-04-24T14:29:05;20.70;39.40
15543;DHT22;7873;52.230;12.856;2023-04-24T14:31:32;20.80;38.60
15543;DHT22;7873;52.230;12.856;2023-04-24T14:33:58;20.60;39.70
15543;DHT22;7873;52.230;12.856;2023-04-24T14:36:25;21.10;39.00
15543;DHT22;7873;52.230;12.856;2023-04-24T14:38:52;21.60;38.40
15543;DHT22;7873;52.230;12.856;2023-04-24T14:41:20;21.90;37.90
15543;DHT22;7873;52.230;12.856;2023-04-24T14:43:46;22.10;37.60
15543;DHT22;7873;52.230;12.856;2023-04-24T14:46:13;22.20;37.00
15543;DHT22;7873;52.230;12.856;2023-04-24T14:48:40;22.20;36.60
15543;DHT22;7873;52.230;12.856;2023-04-24T14:51:06;22.20;36.60
15543;DHT22;7873;52.230;12.856;2023-04-24T14:53:33;22.30;36.50
15543;DHT22;7873;52.230;12.856;2023-04-24T14:56:00;22.30;36.80
15543;DHT22;7873;52.230;12.856;2023-04-24T14:58:28;22.30;36.60
15543;DHT22;7873;52.230;12.856;2023-04-24T15:00:55;22.30;37.30
15543;DHT22;7873;52.230;12.856;2023-04-24T15:03:22;22.20;37.10
15543;DHT22;7873;52.230;12.856;2023-04-24T15:05:49;22.20;37.90
15543;DHT22;7873;52.230;12.856;2023-04-24T15:08:16;22.20;37.90
15543;DHT22;7873;52.230;12.856;2023-04-24T15:10:43;22.20;38.60
15543;DHT22;7873;52.230;12.856;2023-04-24T15:13:10;22.20;37.60
15543;DHT22;7873;52.230;12.856;2023-04-24T15:15:38;22.30;37.80
15543;DHT22;7873;52.230;12.856;2023-04-24T15:18:07;22.30;37.40
15543;DHT22;7873;52.230;12.856;2023-04-24T15:20:36;22.30;37.00
15543;DHT22;7873;52.230;12.856;2023-04-24T15:23:04;22.40;37.10
15543;DHT22;7873;52.230;12.856;2023-04-24T15:25:31;22.10;37.60
15543;DHT22;7873;52.230;12.856;2023-04-24T15:27:58;22.00;38.30
15543;DHT22;7873;52.230;12.856;2023-04-24T15:30:25;21.90;38.60
15543;DHT22;7873;52.230;12.856;2023-04-24T15:32:53;22.00;39.20
15543;DHT22;7873;52.230;12.856;2023-04-24T15:35:20;22.20;39.00
15543;DHT22;7873;52.230;12.856;2023-04-24T15:37:47;22.20;38.90
15543;DHT22;7873;52.230;12.856;2023-04-24T15:40:13;22.20;39.70
15543;DHT22;7873;52.230;12.856;2023-04-24T15:42:41;22.30;39.60